createdAt,value
2023-03-17T00:02:57.753Z,0.61
2023-03-17T00:06:57.922Z,0.61
2023-03-17T00:10:57.971Z,0.60
2023-03-17T00:14:58.069Z,0.60
2023-03-17T00:18:58.249Z,0.60
2023-03-17T00:22:58.402Z,0.61
2023-03-17T00:26:58.537Z,0.61
2023-03-17T00:30:58.765Z,0.59
2023-03-17T00:34:58.902Z,0.59
2023-03-17T00:38:59.038Z,0.59
2023-03-17T00:42:59.161Z,0.59
2023-03-17T00:46:59.344Z,0.60
2023-03-17T00:50:59.518Z,0.59
2023-03-17T00:54:59.659Z,0.59
2023-03-17T00:58:59.865Z,0.59
2023-03-17T01:03:00.016Z,0.59
2023-03-17T01:07:00.181Z,0.59
2023-03-17T01:11:00.379Z,0.59
2023-03-17T01:15:00.574Z,0.60
2023-03-17T01:19:00.811Z,0.60
2023-03-17T01:23:00.938Z,0.59
2023-03-17T01:27:01.147Z,0.59
2023-03-17T01:31:01.327Z,0.59
2023-03-17T01:35:01.501Z,0.60
2023-03-17T01:39:01.684Z,0.59
2023-03-17T01:43:01.919Z,0.59
2023-03-17T01:47:02.091Z,0.58
2023-03-17T01:51:02.282Z,0.59
2023-03-17T01:55:02.519Z,0.58
2023-03-17T01:59:02.741Z,0.60
2023-03-17T02:03:02.941Z,0.59
2023-03-17T02:07:03.149Z,0.59
2023-03-17T02:11:03.344Z,0.60
2023-03-17T02:15:03.603Z,0.59
2023-03-17T02:19:03.815Z,0.59
2023-03-17T02:39:03.874Z,0.58
2023-03-17T02:43:03.863Z,0.60
2023-03-17T02:47:03.795Z,0.58
2023-03-17T02:51:03.747Z,0.57
2023-03-17T02:55:03.691Z,0.59
2023-03-17T02:59:03.722Z,0.57
2023-03-17T03:03:03.706Z,0.58
2023-03-17T03:07:03.716Z,0.57
2023-03-17T03:11:03.638Z,0.57
2023-03-17T03:15:03.572Z,0.57
2023-03-17T03:19:03.530Z,0.59
2023-03-17T03:23:03.494Z,0.58
2023-03-17T03:27:03.462Z,0.57
2023-03-17T03:31:03.528Z,0.58
2023-03-17T03:35:03.363Z,0.59
2023-03-17T03:39:03.383Z,0.56
2023-03-17T03:43:12.991Z,0.57
2023-03-17T03:47:04.479Z,0.58
2023-03-17T03:51:03.514Z,0.57
2023-03-17T03:55:03.483Z,0.59
2023-03-17T03:59:03.414Z,0.55
2023-03-17T04:03:03.413Z,0.57
2023-03-17T04:07:03.359Z,0.56
2023-03-17T04:11:03.292Z,0.55
2023-03-17T04:15:03.266Z,0.57
2023-03-17T04:19:03.378Z,0.58
2023-03-17T04:23:03.216Z,0.57
2023-03-17T04:27:05.795Z,0.56
2023-03-17T04:31:03.110Z,0.59
2023-03-17T04:35:03.131Z,0.57
2023-03-17T04:39:03.037Z,0.60
2023-03-17T04:43:03.607Z,0.57
2023-03-17T04:47:02.963Z,0.57
2023-03-17T04:51:02.936Z,0.56
2023-03-17T04:55:02.849Z,0.58
2023-03-17T04:59:02.891Z,0.58
2023-03-17T05:03:02.879Z,0.54
2023-03-17T05:07:02.795Z,0.51
2023-03-17T05:11:02.828Z,0.52
2023-03-17T05:15:02.974Z,0.51
2023-03-17T05:19:03.120Z,0.51
2023-03-17T05:23:03.224Z,0.51
2023-03-17T05:27:03.276Z,0.52
2023-03-17T05:31:03.536Z,0.52
2023-03-17T05:35:03.607Z,0.54
2023-03-17T05:39:03.790Z,0.57
2023-03-17T05:43:03.732Z,0.59
2023-03-17T05:47:03.833Z,0.60
2023-03-17T05:51:03.992Z,0.58
2023-03-17T05:55:04.027Z,0.60
2023-03-17T05:59:04.206Z,0.62
2023-03-17T06:03:04.383Z,0.63
2023-03-17T06:07:04.569Z,0.64
2023-03-17T06:11:04.750Z,0.63
2023-03-17T06:15:04.739Z,0.64
2023-03-17T06:19:04.756Z,0.66
2023-03-17T06:23:05.794Z,0.66
2023-03-17T06:27:04.613Z,0.65
2023-03-17T06:31:07.145Z,0.65
2023-03-17T06:35:04.557Z,0.64
2023-03-17T06:39:04.497Z,0.53
2023-03-17T06:43:04.521Z,0.53
2023-03-17T06:47:04.431Z,0.53
2023-03-17T06:51:04.384Z,0.58
2023-03-17T06:55:04.311Z,0.63
2023-03-17T06:59:04.313Z,0.61
2023-03-17T07:03:04.285Z,0.67
2023-03-17T07:07:04.182Z,0.69
2023-03-17T07:11:04.187Z,0.73
2023-03-17T07:15:04.165Z,0.67
2023-03-17T07:19:04.133Z,0.69
2023-03-17T07:23:04.185Z,0.72
2023-03-17T07:27:04.960Z,0.69
2023-03-17T07:31:04.450Z,0.70
2023-03-17T07:35:04.504Z,0.72
2023-03-17T07:39:04.595Z,0.68
2023-03-17T07:43:04.633Z,0.67
2023-03-17T07:47:04.676Z,0.67
2023-03-17T07:51:04.857Z,0.65
2023-03-17T07:55:05.035Z,0.74
2023-03-17T07:59:05.038Z,0.80
2023-03-17T08:03:10.451Z,0.85
2023-03-17T08:07:05.992Z,0.85
2023-03-17T08:11:04.986Z,0.87
2023-03-17T08:15:05.738Z,0.82
2023-03-17T08:19:04.914Z,0.87
2023-03-17T08:23:04.888Z,0.82
2023-03-17T08:27:04.810Z,0.84
2023-03-17T08:31:04.806Z,0.82
2023-03-17T08:35:04.767Z,0.85
2023-03-17T08:39:04.682Z,0.79
2023-03-17T08:43:04.634Z,0.79
2023-03-17T08:47:06.510Z,0.83
2023-03-17T08:51:04.579Z,0.83
2023-03-17T08:55:04.545Z,0.84
2023-03-17T08:59:04.491Z,0.83
2023-03-17T09:03:04.542Z,0.84
2023-03-17T09:07:04.725Z,0.85
2023-03-17T09:11:04.387Z,0.85
2023-03-17T09:15:04.420Z,0.85
2023-03-17T09:19:04.546Z,0.86
2023-03-17T09:23:04.675Z,0.86
2023-03-17T09:27:04.601Z,0.85
2023-03-17T09:31:04.632Z,0.84
2023-03-17T09:35:04.547Z,0.86
2023-03-17T09:39:04.490Z,0.87
2023-03-17T09:43:04.441Z,0.86
2023-03-17T09:47:04.496Z,0.86
2023-03-17T09:51:04.378Z,0.86
2023-03-17T09:55:04.437Z,0.87
2023-03-17T09:59:04.338Z,0.87
2023-03-17T10:03:04.316Z,0.88
2023-03-17T10:07:04.241Z,0.86
2023-03-17T10:11:04.273Z,0.89
2023-03-17T10:15:04.405Z,0.88
2023-03-17T10:19:04.470Z,0.89
2023-03-17T10:23:04.594Z,0.88
2023-03-17T10:27:04.581Z,0.89
2023-03-17T10:31:04.652Z,0.89
2023-03-17T10:35:04.744Z,0.90
2023-03-17T10:39:04.704Z,0.89
2023-03-17T10:43:04.660Z,0.91
2023-03-17T10:47:04.881Z,0.92
2023-03-17T10:51:04.694Z,0.90
2023-03-17T10:55:04.681Z,0.92
2023-03-17T10:59:04.697Z,0.89
2023-03-17T11:03:04.658Z,0.90
2023-03-17T11:07:05.122Z,0.89
2023-03-17T11:11:04.687Z,0.90
2023-03-17T11:15:04.844Z,0.93
2023-03-17T11:19:04.857Z,0.56
2023-03-17T11:23:04.975Z,0.34
2023-03-17T11:27:05.139Z,0.58
2023-03-17T11:31:05.351Z,0.60
2023-03-17T11:35:05.258Z,1.02
2023-03-17T11:39:05.299Z,0.75
2023-03-17T11:43:05.366Z,0.88
2023-03-17T11:47:05.526Z,1.01
2023-03-17T11:51:05.676Z,1.23
2023-03-17T11:55:05.743Z,1.09
2023-03-17T11:59:05.851Z,0.38
2023-03-17T12:03:06.072Z,0.34
2023-03-17T12:07:06.000Z,0.37
2023-03-17T12:11:05.922Z,0.61
2023-03-17T12:15:06.661Z,1.69
2023-03-17T12:19:05.835Z,2.17
2023-03-17T12:23:05.802Z,3.27
2023-03-17T12:27:05.811Z,3.21
2023-03-17T12:31:05.925Z,5.80
2023-03-17T12:35:05.679Z,4.51
2023-03-17T12:39:05.686Z,4.56
2023-03-17T12:43:05.620Z,4.06
2023-03-17T12:47:05.847Z,4.99
2023-03-17T12:51:05.947Z,4.47
2023-03-17T12:55:06.109Z,4.30
2023-03-17T12:59:06.322Z,4.73
2023-03-17T13:03:06.545Z,1.33
2023-03-17T13:07:06.717Z,2.71
2023-03-17T13:11:06.646Z,3.05
2023-03-17T13:15:06.630Z,4.35
2023-03-17T13:19:06.600Z,4.92
2023-03-17T13:23:06.524Z,4.63
2023-03-17T13:27:06.542Z,5.35
2023-03-17T13:31:06.476Z,5.15
2023-03-17T13:35:06.442Z,5.45
2023-03-17T13:39:18.876Z,4.29
2023-03-17T13:43:07.370Z,4.50
2023-03-17T13:47:06.375Z,3.77
2023-03-17T13:51:07.197Z,3.91
2023-03-17T13:55:06.527Z,5.09
2023-03-17T13:59:06.718Z,4.29
2023-03-17T14:03:06.912Z,4.13
2023-03-17T14:07:07.085Z,3.14
2023-03-17T14:11:07.316Z,3.98
2023-03-17T14:15:08.462Z,4.28
2023-03-17T14:19:07.469Z,2.99
2023-03-17T14:23:07.448Z,3.69
2023-03-17T14:27:07.392Z,3.63
2023-03-17T14:31:07.337Z,4.34
2023-03-17T14:35:07.313Z,3.72
2023-03-17T14:39:07.248Z,4.04
2023-03-17T14:43:07.221Z,4.49
2023-03-17T14:47:07.199Z,3.50
2023-03-17T14:51:07.213Z,6.88
2023-03-17T14:55:07.140Z,7.05
2023-03-17T14:59:07.051Z,6.00
2023-03-17T15:03:07.049Z,7.07
2023-03-17T15:07:07.000Z,6.28
2023-03-17T15:11:07.002Z,6.77
2023-03-17T15:15:07.031Z,5.88
2023-03-17T15:19:06.898Z,5.70
2023-03-17T15:23:06.907Z,4.78
2023-03-17T15:27:06.860Z,6.56
2023-03-17T15:31:06.848Z,6.76
2023-03-17T15:35:06.813Z,7.56
2023-03-17T15:39:06.888Z,8.10
2023-03-17T15:43:06.771Z,7.87
2023-03-17T15:47:06.760Z,8.04
2023-03-17T15:51:06.662Z,8.12
2023-03-17T15:55:06.632Z,7.95
2023-03-17T15:59:06.612Z,7.96
2023-03-17T16:03:06.538Z,7.87
2023-03-17T16:07:06.516Z,8.04
2023-03-17T16:11:06.429Z,7.61
2023-03-17T16:15:20.168Z,7.83
2023-03-17T16:19:07.463Z,7.42
2023-03-17T16:23:06.388Z,7.71
2023-03-17T16:27:06.631Z,7.74
2023-03-17T16:31:06.541Z,7.36
2023-03-17T16:35:07.668Z,7.59
2023-03-17T16:39:06.498Z,7.25
2023-03-17T16:43:12.956Z,7.45
2023-03-17T16:47:07.481Z,7.52
2023-03-17T16:51:06.304Z,7.14
2023-03-17T16:55:06.519Z,7.39
2023-03-17T16:59:06.822Z,7.14
2023-03-17T17:03:06.533Z,7.47
2023-03-17T17:07:06.765Z,6.94
2023-03-17T17:11:06.391Z,7.08
2023-03-17T17:15:06.340Z,6.95
2023-03-17T17:19:06.285Z,6.75
2023-03-17T17:23:06.265Z,6.82
2023-03-17T17:27:06.186Z,6.76
2023-03-17T17:31:06.248Z,6.61
2023-03-17T17:35:06.187Z,6.60
2023-03-17T17:39:06.372Z,6.66
2023-03-17T17:43:06.487Z,6.57
2023-03-17T17:47:06.650Z,6.50
2023-03-17T17:51:06.715Z,6.57
2023-03-17T17:55:06.790Z,6.27
2023-03-17T17:59:06.912Z,6.13
2023-03-17T18:03:07.033Z,5.78
2023-03-17T18:07:07.055Z,6.03
2023-03-17T18:11:07.126Z,5.74
2023-03-17T18:15:07.160Z,5.70
2023-03-17T18:19:07.147Z,5.93
2023-03-17T18:23:07.227Z,5.74
2023-03-17T18:27:07.140Z,5.67
2023-03-17T18:31:07.206Z,5.35
2023-03-17T18:35:07.232Z,5.26
2023-03-17T18:39:07.201Z,5.20
2023-03-17T18:43:07.210Z,4.53
2023-03-17T18:47:07.149Z,3.60
2023-03-17T18:51:07.248Z,2.97
2023-03-17T18:55:07.171Z,3.09
2023-03-17T18:59:07.249Z,2.75
2023-03-17T19:03:07.225Z,2.18
2023-03-17T19:07:07.163Z,2.50
2023-03-17T19:11:07.171Z,2.39
2023-03-17T19:15:07.202Z,3.20
2023-03-17T19:19:07.255Z,3.50
2023-03-17T19:23:07.244Z,3.23
2023-03-17T19:27:07.307Z,3.64
2023-03-17T19:31:07.436Z,3.59
2023-03-17T19:35:07.259Z,3.01
2023-03-17T19:39:07.397Z,3.55
2023-03-17T19:43:07.294Z,4.26
2023-03-17T19:47:07.377Z,3.99
2023-03-17T19:51:07.342Z,3.61
2023-03-17T19:55:08.338Z,4.27
2023-03-17T19:59:07.336Z,4.16
2023-03-17T20:03:07.351Z,3.78
2023-03-17T20:07:07.429Z,4.16
2023-03-17T20:11:07.336Z,4.34
2023-03-17T20:15:07.325Z,4.28
2023-03-17T20:19:07.338Z,4.04
2023-03-17T20:23:08.274Z,4.23
2023-03-17T20:27:07.380Z,4.21
2023-03-17T20:31:07.405Z,4.39
2023-03-17T20:35:08.113Z,4.41
2023-03-17T20:39:07.420Z,4.58
2023-03-17T20:43:07.433Z,4.58
2023-03-17T20:47:07.453Z,4.52
2023-03-17T20:51:07.545Z,4.54
2023-03-17T20:55:07.547Z,4.62
2023-03-17T20:59:07.593Z,4.56
2023-03-17T21:03:07.662Z,4.48
2023-03-17T21:07:07.660Z,4.55
2023-03-17T21:11:07.713Z,4.53
2023-03-17T21:15:07.739Z,4.40
2023-03-17T21:19:09.627Z,4.45
2023-03-17T21:23:07.907Z,4.46
2023-03-17T21:27:08.347Z,4.41
2023-03-17T21:31:07.995Z,4.41
2023-03-17T21:35:08.015Z,4.30
2023-03-17T21:39:08.001Z,4.41
2023-03-17T21:43:08.044Z,4.35
2023-03-17T21:47:08.069Z,4.30
2023-03-17T21:51:08.169Z,4.33
2023-03-17T21:55:08.217Z,4.35
2023-03-17T21:59:08.248Z,4.39
2023-03-17T22:03:08.355Z,4.21
2023-03-17T22:07:08.320Z,4.10
2023-03-17T22:11:08.384Z,4.19
2023-03-17T22:15:08.413Z,4.10
2023-03-17T22:19:08.514Z,4.19
2023-03-17T22:23:08.575Z,4.06
2023-03-17T22:27:08.570Z,4.12
2023-03-17T22:31:08.641Z,4.11
2023-03-17T22:35:08.669Z,4.06
2023-03-17T22:39:08.789Z,4.04
2023-03-17T22:43:08.963Z,4.01
2023-03-17T22:47:08.889Z,3.98
2023-03-17T22:51:09.017Z,4.00
2023-03-17T22:55:09.034Z,3.99
2023-03-17T22:59:09.070Z,4.03
2023-03-17T23:03:09.102Z,3.93
2023-03-17T23:07:09.405Z,3.89
2023-03-17T23:11:09.266Z,3.91
2023-03-17T23:15:09.475Z,3.84
2023-03-17T23:19:09.517Z,3.82
2023-03-17T23:23:09.493Z,3.84
2023-03-17T23:27:09.578Z,3.80
2023-03-17T23:31:09.754Z,3.81
2023-03-17T23:35:09.832Z,3.77
2023-03-17T23:39:09.869Z,3.72
2023-03-17T23:43:09.934Z,3.70
2023-03-17T23:47:10.006Z,3.67
2023-03-17T23:51:10.126Z,3.68
2023-03-17T23:55:10.165Z,3.70
2023-03-17T23:59:10.290Z,3.63
